createdAt,value
2023-04-16T00:02:41.346Z,100095.59
2023-04-16T00:05:43.926Z,100091.34
2023-04-16T00:08:46.252Z,100093.28
2023-04-16T00:11:48.558Z,100092.44
2023-04-16T00:14:50.855Z,100088.09
2023-04-16T00:17:53.144Z,100091.78
2023-04-16T00:20:55.531Z,100104.28
2023-04-16T00:23:57.870Z,100098.88
2023-04-16T00:27:00.150Z,100086.28
2023-04-16T00:30:02.546Z,100094.09
2023-04-16T00:33:04.869Z,100102.03
2023-04-16T00:36:07.468Z,100097.50
2023-04-16T00:39:09.876Z,100095.59
2023-04-16T00:42:12.270Z,100097.09
2023-04-16T00:45:14.742Z,100096.22
2023-04-16T00:48:17.229Z,100095.38
2023-04-16T00:51:21.422Z,100087.97
2023-04-16T00:54:25.314Z,100092.44
2023-04-16T00:57:28.000Z,100085.22
2023-04-16T01:00:30.359Z,100088.34
2023-04-16T01:03:52.939Z,100100.66
2023-04-16T01:06:55.288Z,100098.56
2023-04-16T01:09:57.833Z,100098.66
2023-04-16T01:13:00.064Z,100097.06
2023-04-16T01:16:02.483Z,100095.91
2023-04-16T01:19:04.781Z,100102.78
2023-04-16T01:22:07.171Z,100110.41
2023-04-16T01:25:14.258Z,100109.66
2023-04-16T01:28:16.601Z,100106.25
2023-04-16T01:31:19.406Z,100108.16
2023-04-16T01:34:36.506Z,100100.44
2023-04-16T01:37:38.822Z,100113.88
2023-04-16T01:40:41.052Z,100110.50
2023-04-16T01:43:43.312Z,100102.75
2023-04-16T01:46:45.618Z,100111.53
2023-04-16T01:49:48.343Z,100115.13
2023-04-16T01:52:50.600Z,100113.16
2023-04-16T01:55:52.841Z,100100.44
2023-04-16T01:58:55.102Z,100103.41
2023-04-16T02:02:07.794Z,100099.63
2023-04-16T02:05:10.281Z,100104.59
2023-04-16T02:08:12.516Z,100112.28
2023-04-16T02:11:15.024Z,100112.75
2023-04-16T02:14:18.247Z,100123.25
2023-04-16T02:17:20.857Z,100126.09
2023-04-16T02:20:26.253Z,100130.44
2023-04-16T02:23:32.887Z,100132.41
2023-04-16T02:26:35.823Z,100131.66
2023-04-16T02:29:43.424Z,100119.47
2023-04-16T02:32:50.312Z,100116.44
2023-04-16T02:35:53.236Z,100117.94
2023-04-16T02:38:55.650Z,100119.66
2023-04-16T02:41:58.022Z,100120.69
2023-04-16T02:45:00.293Z,100116.63
2023-04-16T02:48:02.721Z,100108.63
2023-04-16T02:51:05.373Z,100112.25
2023-04-16T02:54:07.744Z,100114.59
2023-04-16T02:57:10.016Z,100115.28
2023-04-16T03:00:12.852Z,100118.38
2023-04-16T03:03:15.413Z,100130.03
2023-04-16T03:06:17.702Z,100128.19
2023-04-16T03:09:19.979Z,100124.00
2023-04-16T03:12:22.224Z,100128.63
2023-04-16T03:15:25.279Z,100118.47
2023-04-16T03:18:27.471Z,100125.22
2023-04-16T03:21:29.866Z,100137.22
2023-04-16T03:24:34.039Z,100142.56
2023-04-16T03:27:36.311Z,100154.63
2023-04-16T03:30:38.656Z,100153.59
2023-04-16T03:33:42.600Z,100152.72
2023-04-16T03:36:45.573Z,100156.28
2023-04-16T03:39:47.790Z,100166.75
2023-04-16T03:42:50.624Z,100173.63
2023-04-16T03:45:52.924Z,100182.25
2023-04-16T03:48:58.522Z,100177.38
2023-04-16T03:52:00.972Z,100186.84
2023-04-16T03:55:04.095Z,100189.66
2023-04-16T03:58:07.318Z,100184.94
2023-04-16T04:01:09.548Z,100184.72
2023-04-16T04:04:13.302Z,100187.63
2023-04-16T04:07:16.555Z,100192.94
2023-04-16T04:10:18.799Z,100189.72
2023-04-16T04:13:21.157Z,100184.34
2023-04-16T04:16:24.580Z,100186.63
2023-04-16T04:19:26.940Z,100189.94
2023-04-16T04:22:29.472Z,100180.66
2023-04-16T04:25:32.035Z,100191.91
2023-04-16T04:28:35.253Z,100199.44
2023-04-16T04:31:37.698Z,100203.63
2023-04-16T04:34:40.065Z,100208.97
2023-04-16T04:37:44.077Z,100207.63
2023-04-16T04:40:53.175Z,100208.13
2023-04-16T04:43:56.937Z,100210.66
2023-04-16T04:47:00.676Z,100206.50
2023-04-16T04:50:03.177Z,100204.34
2023-04-16T04:53:10.180Z,100211.31
2023-04-16T04:56:13.377Z,100208.13
2023-04-16T04:59:16.307Z,100217.09
2023-04-16T05:02:19.473Z,100217.66
2023-04-16T05:05:22.068Z,100213.94
2023-04-16T05:08:24.386Z,100218.44
2023-04-16T05:11:26.625Z,100214.50
2023-04-16T05:14:28.965Z,100214.25
2023-04-16T05:17:31.486Z,100215.31
2023-04-16T05:20:33.815Z,100215.13
2023-04-16T05:23:36.044Z,100219.53
2023-04-16T05:26:38.328Z,100216.72
2023-04-16T05:29:40.760Z,100235.84
2023-04-16T05:32:43.109Z,100247.28
2023-04-16T05:35:45.501Z,100240.91
2023-04-16T05:38:47.739Z,100235.56
2023-04-16T05:41:50.015Z,100239.56
2023-04-16T05:44:52.829Z,100235.13
2023-04-16T05:47:55.184Z,100244.22
2023-04-16T05:50:57.577Z,100243.00
2023-04-16T05:53:59.810Z,100245.16
2023-04-16T05:57:02.358Z,100251.78
2023-04-16T06:00:05.280Z,100252.25
2023-04-16T06:03:14.286Z,100264.94
2023-04-16T06:06:17.816Z,100269.38
2023-04-16T06:09:20.072Z,100262.81
2023-04-16T06:12:22.404Z,100256.72
2023-04-16T06:15:24.614Z,100254.00
2023-04-16T06:18:26.875Z,100253.13
2023-04-16T06:21:29.558Z,100259.09
2023-04-16T06:24:31.950Z,100265.97
2023-04-16T06:27:34.217Z,100255.44
2023-04-16T06:30:36.562Z,100251.44
2023-04-16T06:33:38.810Z,100256.84
2023-04-16T06:36:41.161Z,100251.84
2023-04-16T06:39:43.464Z,100247.31
2023-04-16T06:42:45.843Z,100260.22
2023-04-16T06:45:48.125Z,100251.44
2023-04-16T06:48:50.558Z,100248.97
2023-04-16T06:51:52.863Z,100260.38
2023-04-16T06:54:55.211Z,100262.03
2023-04-16T06:57:57.430Z,100263.97
2023-04-16T07:01:00.000Z,100262.66
2023-04-16T07:04:02.625Z,100268.06
2023-04-16T07:07:05.065Z,100260.41
2023-04-16T07:10:08.315Z,100258.16
2023-04-16T07:13:10.663Z,100250.50
2023-04-16T07:16:12.935Z,100248.28
2023-04-16T07:19:15.280Z,100241.91
2023-04-16T07:22:17.707Z,100246.38
2023-04-16T07:25:20.065Z,100242.84
2023-04-16T07:28:22.337Z,100246.44
2023-04-16T07:31:24.608Z,100247.22
2023-04-16T07:34:26.910Z,100237.59
2023-04-16T07:37:29.289Z,100247.59
2023-04-16T07:40:31.588Z,100253.53
2023-04-16T07:43:33.832Z,100255.03
2023-04-16T07:46:45.543Z,100238.84
2023-04-16T07:49:50.681Z,100251.16
2023-04-16T07:52:53.771Z,100263.28
2023-04-16T07:55:56.101Z,100262.59
2023-04-16T07:59:02.847Z,100269.38
2023-04-16T08:02:13.615Z,100266.53
2023-04-16T08:05:16.093Z,100270.78
2023-04-16T08:08:18.335Z,100265.97
2023-04-16T08:11:20.721Z,100257.97
2023-04-16T08:14:23.218Z,100255.66
2023-04-16T08:17:25.532Z,100260.16
2023-04-16T08:20:27.912Z,100266.66
2023-04-16T08:23:30.253Z,100264.97
2023-04-16T08:26:32.488Z,100268.34
2023-04-16T08:29:34.731Z,100265.34
2023-04-16T08:32:37.047Z,100264.22
2023-04-16T08:35:39.388Z,100264.28
2023-04-16T08:38:41.671Z,100272.63
2023-04-16T08:41:46.664Z,100285.41
2023-04-16T08:44:50.058Z,100283.78
2023-04-16T08:47:52.925Z,100283.19
2023-04-16T08:50:55.782Z,100290.09
2023-04-16T08:54:12.540Z,100290.47
2023-04-16T08:57:20.529Z,100287.38
2023-04-16T09:00:23.216Z,100287.81
2023-04-16T09:03:25.767Z,100293.78
2023-04-16T09:06:28.477Z,100295.00
2023-04-16T09:09:31.940Z,100291.63
2023-04-16T09:12:35.802Z,100296.53
2023-04-16T09:15:38.110Z,100304.16
2023-04-16T09:18:41.263Z,100306.59
2023-04-16T09:21:46.919Z,100313.91
2023-04-16T09:24:49.198Z,100313.53
2023-04-16T09:27:51.569Z,100312.09
2023-04-16T09:31:08.337Z,100321.94
2023-04-16T09:34:10.873Z,100323.03
2023-04-16T09:37:17.312Z,100317.38
2023-04-16T09:40:25.082Z,100320.16
2023-04-16T09:43:27.340Z,100323.06
2023-04-16T09:46:30.377Z,100325.25
2023-04-16T09:49:34.818Z,100320.69
2023-04-16T09:52:40.352Z,100323.94
2023-04-16T09:55:42.657Z,100317.53
2023-04-16T09:58:46.066Z,100311.94
2023-04-16T10:02:12.277Z,100309.78
2023-04-16T10:05:20.060Z,100309.53
2023-04-16T10:08:24.080Z,100308.78
2023-04-16T10:11:26.482Z,100297.38
2023-04-16T10:14:28.758Z,100298.84
2023-04-16T10:17:31.642Z,100293.72
2023-04-16T10:20:33.760Z,100289.84
2023-04-16T10:23:36.003Z,100281.91
2023-04-16T10:26:39.291Z,100280.28
2023-04-16T10:29:41.661Z,100281.84
2023-04-16T10:32:44.974Z,100285.66
2023-04-16T10:35:54.996Z,100275.38
2023-04-16T10:39:12.182Z,100269.22
2023-04-16T10:42:15.928Z,100273.94
2023-04-16T10:45:21.478Z,100268.41
2023-04-16T10:48:31.000Z,100257.34
2023-04-16T10:51:41.476Z,100252.59
2023-04-16T10:54:43.819Z,100253.25
2023-04-16T10:57:49.719Z,100255.72
2023-04-16T11:00:52.335Z,100257.53
2023-04-16T11:03:54.889Z,100249.69
2023-04-16T11:07:16.420Z,100241.00
2023-04-16T11:10:18.938Z,100249.69
2023-04-16T11:13:21.222Z,100243.09
2023-04-16T11:16:25.483Z,100248.19
2023-04-16T11:19:28.634Z,100250.03
2023-04-16T11:22:38.728Z,100249.75
2023-04-16T11:25:43.541Z,100254.50
2023-04-16T11:28:45.981Z,100250.00
2023-04-16T11:31:55.189Z,100240.69
2023-04-16T11:34:57.636Z,100251.94
2023-04-16T11:38:00.257Z,100244.19
2023-04-16T11:41:03.165Z,100251.72
2023-04-16T11:44:26.473Z,100253.13
2023-04-16T11:47:30.571Z,100240.84
2023-04-16T11:50:32.918Z,100248.63
2023-04-16T11:53:36.618Z,100244.97
2023-04-16T11:56:38.947Z,100247.25
2023-04-16T12:00:02.473Z,100232.72
2023-04-16T12:03:14.942Z,100241.16
2023-04-16T12:06:17.386Z,100238.13
2023-04-16T12:09:26.176Z,100239.97
2023-04-16T12:12:31.463Z,100233.78
2023-04-16T12:15:51.372Z,100228.06
2023-04-16T12:19:04.190Z,100231.03
2023-04-16T12:22:06.628Z,100226.94
2023-04-16T12:25:16.720Z,100219.09
2023-04-16T12:28:36.901Z,100224.72
2023-04-16T12:31:39.244Z,100223.59
2023-04-16T12:34:51.284Z,100221.94
2023-04-16T12:37:53.539Z,100219.13
2023-04-16T12:40:57.752Z,100218.41
2023-04-16T12:44:16.609Z,100212.06
2023-04-16T12:47:18.938Z,100206.44
2023-04-16T12:50:21.610Z,100207.31
2023-04-16T12:53:23.968Z,100210.38
2023-04-16T12:56:26.476Z,100201.78
2023-04-16T12:59:28.755Z,100201.38
2023-04-16T13:02:32.263Z,100210.38
2023-04-16T13:05:34.674Z,100199.16
2023-04-16T13:08:37.526Z,100186.19
2023-04-16T13:11:39.634Z,100197.59
2023-04-16T13:14:43.371Z,100193.50
2023-04-16T13:17:47.400Z,100185.66
2023-04-16T13:20:49.881Z,100183.38
2023-04-16T13:23:52.296Z,100180.88
2023-04-16T13:26:56.308Z,100179.19
2023-04-16T13:29:58.616Z,100174.13
2023-04-16T13:33:00.927Z,100175.34
2023-04-16T13:36:03.410Z,100174.22
2023-04-16T13:39:10.689Z,100170.16
2023-04-16T13:42:13.191Z,100161.13
2023-04-16T13:45:15.460Z,100159.44
2023-04-16T13:48:17.933Z,100156.25
2023-04-16T13:51:20.288Z,100151.59
2023-04-16T13:54:22.561Z,100168.78
2023-04-16T13:57:24.978Z,100155.81
2023-04-16T14:00:27.694Z,100165.09
2023-04-16T14:03:30.097Z,100168.47
2023-04-16T14:06:33.240Z,100165.22
2023-04-16T14:09:35.730Z,100165.66
2023-04-16T14:12:38.745Z,100158.38
2023-04-16T14:15:41.082Z,100164.25
2023-04-16T14:18:43.367Z,100164.69
2023-04-16T14:21:45.793Z,100159.19
2023-04-16T14:24:48.041Z,100160.88
2023-04-16T14:27:50.375Z,100157.91
2023-04-16T14:30:52.648Z,100157.22
2023-04-16T14:33:54.989Z,100151.28
2023-04-16T14:36:57.229Z,100150.88
2023-04-16T14:40:00.069Z,100158.34
2023-04-16T14:43:02.206Z,100148.19
2023-04-16T14:46:06.551Z,100151.00
2023-04-16T14:49:11.906Z,100151.00
2023-04-16T14:52:14.614Z,100146.94
2023-04-16T14:55:16.928Z,100144.56
2023-04-16T14:58:19.252Z,100148.78
2023-04-16T15:01:21.488Z,100143.25
2023-04-16T15:04:24.713Z,100144.25
2023-04-16T15:07:27.652Z,100145.41
2023-04-16T15:10:29.881Z,100139.47
2023-04-16T15:13:34.192Z,100137.25
2023-04-16T15:16:36.874Z,100133.28
2023-04-16T15:19:39.151Z,100135.81
2023-04-16T15:22:41.477Z,100130.19
2023-04-16T15:25:43.735Z,100136.25
2023-04-16T15:28:46.197Z,100136.41
2023-04-16T15:31:48.492Z,100131.47
2023-04-16T15:34:50.989Z,100133.84
2023-04-16T15:37:53.878Z,100126.69
2023-04-16T15:40:58.353Z,100133.56
2023-04-16T15:44:00.651Z,100142.16
2023-04-16T15:47:03.042Z,100148.78
2023-04-16T15:50:05.947Z,100144.41
2023-04-16T15:53:08.061Z,100142.59
2023-04-16T15:56:10.206Z,100140.91
2023-04-16T15:59:12.926Z,100141.75
2023-04-16T16:02:15.616Z,100145.09
2023-04-16T16:05:18.976Z,100143.97
2023-04-16T16:08:21.399Z,100148.22
2023-04-16T16:11:23.666Z,100144.81
2023-04-16T16:14:27.073Z,100147.50
2023-04-16T16:17:29.783Z,100144.50
2023-04-16T16:20:32.113Z,100156.47
2023-04-16T16:23:34.685Z,100151.00
2023-04-16T16:26:37.574Z,100154.41
2023-04-16T16:29:39.829Z,100144.81
2023-04-16T16:32:44.077Z,100149.91
2023-04-16T16:35:46.366Z,100151.59
2023-04-16T16:38:48.670Z,100150.16
2023-04-16T16:41:52.613Z,100154.97
2023-04-16T16:44:56.760Z,100149.63
2023-04-16T16:47:59.901Z,100151.00
2023-04-16T16:51:02.153Z,100158.03
2023-04-16T16:54:04.575Z,100158.03
2023-04-16T16:57:07.156Z,100153.81
2023-04-16T17:00:14.406Z,100160.84
2023-04-16T17:03:17.104Z,100161.28
2023-04-16T17:06:21.105Z,100165.66
2023-04-16T17:09:23.375Z,100161.97
2023-04-16T17:12:26.247Z,100164.81
2023-04-16T17:15:28.465Z,100168.47
2023-04-16T17:18:30.739Z,100172.25
2023-04-16T17:21:33.921Z,100174.50
2023-04-16T17:24:36.254Z,100180.81
2023-04-16T17:27:41.414Z,100177.47
2023-04-16T17:30:43.890Z,100169.84
2023-04-16T17:33:46.177Z,100183.59
2023-04-16T17:36:50.478Z,100189.53
2023-04-16T17:39:52.879Z,100197.09
2023-04-16T17:42:55.122Z,100187.94
2023-04-16T17:45:57.374Z,100195.66
2023-04-16T17:48:59.683Z,100192.31
2023-04-16T17:52:02.034Z,100189.91
2023-04-16T17:55:07.772Z,100193.81
2023-04-16T17:58:10.376Z,100193.41
2023-04-16T18:01:12.723Z,100202.00
2023-04-16T18:04:15.462Z,100208.66
2023-04-16T18:07:18.060Z,100214.56
2023-04-16T18:10:20.462Z,100212.41
2023-04-16T18:13:24.045Z,100208.53
2023-04-16T18:16:26.735Z,100213.19
2023-04-16T18:19:29.097Z,100218.53
2023-04-16T18:22:31.887Z,100222.22
2023-04-16T18:25:35.175Z,100233.44
2023-04-16T18:28:37.823Z,100233.03
2023-04-16T18:31:40.177Z,100226.72
2023-04-16T18:34:42.585Z,100217.13
2023-04-16T18:37:47.952Z,100219.34
2023-04-16T18:40:50.387Z,100210.63
2023-04-16T18:43:52.701Z,100204.97
2023-04-16T18:46:54.966Z,100206.09
2023-04-16T18:49:57.309Z,100209.72
2023-04-16T18:52:59.793Z,100204.66
2023-04-16T18:56:02.127Z,100206.03
2023-04-16T18:59:04.426Z,100201.53
2023-04-16T19:02:07.274Z,100195.38
2023-04-16T19:05:09.749Z,100196.34
2023-04-16T19:08:12.074Z,100195.03
2023-04-16T19:11:14.390Z,100193.94
2023-04-16T19:14:16.642Z,100200.50
2023-04-16T19:17:18.967Z,100193.88
2023-04-16T19:20:21.360Z,100199.84
2023-04-16T19:23:23.599Z,100191.47
2023-04-16T19:26:27.036Z,100189.19
2023-04-16T19:29:33.505Z,100205.97
2023-04-16T19:32:36.471Z,100204.53
2023-04-16T19:35:38.747Z,100196.09
2023-04-16T19:38:41.172Z,100196.56
2023-04-16T19:41:43.424Z,100196.63
2023-04-16T19:44:45.678Z,100195.78
2023-04-16T19:47:48.811Z,100201.41
2023-04-16T19:50:51.239Z,100189.91
2023-04-16T19:53:53.851Z,100191.72
2023-04-16T19:56:57.067Z,100195.09
2023-04-16T19:59:59.337Z,100191.47
2023-04-16T20:03:02.250Z,100191.59
2023-04-16T20:06:05.506Z,100187.09
2023-04-16T20:09:07.765Z,100192.56
2023-04-16T20:12:10.041Z,100189.91
2023-04-16T20:15:12.325Z,100187.09
2023-04-16T20:18:14.657Z,100179.81
2023-04-16T20:21:16.902Z,100180.78
2023-04-16T20:24:19.240Z,100183.41
2023-04-16T20:27:21.748Z,100189.44
2023-04-16T20:30:29.013Z,100190.81
2023-04-16T20:33:31.446Z,100183.41
2023-04-16T20:36:33.678Z,100184.13
2023-04-16T20:39:40.126Z,100178.47
2023-04-16T20:42:46.280Z,100178.09
2023-04-16T20:45:50.035Z,100181.50
2023-04-16T20:48:52.402Z,100186.00
2023-04-16T20:51:54.698Z,100170.66
2023-04-16T20:54:57.041Z,100172.41
2023-04-16T20:57:59.446Z,100170.72
2023-04-16T21:01:01.923Z,100170.16
2023-04-16T21:04:04.445Z,100165.84
2023-04-16T21:07:06.879Z,100174.81
2023-04-16T21:10:10.576Z,100178.28
2023-04-16T21:13:13.224Z,100180.09
2023-04-16T21:16:15.615Z,100175.13
2023-04-16T21:19:17.870Z,100163.72
2023-04-16T21:22:20.161Z,100177.47
2023-04-16T21:25:24.775Z,100177.09
2023-04-16T21:28:27.036Z,100158.63
2023-04-16T21:31:29.364Z,100158.09
2023-04-16T21:34:31.608Z,100149.72
2023-04-16T21:37:33.989Z,100152.13
2023-04-16T21:40:36.255Z,100156.78
2023-04-16T21:43:38.472Z,100155.88
2023-04-16T21:46:40.821Z,100153.50
2023-04-16T21:49:43.115Z,100157.13
2023-04-16T21:52:46.310Z,100148.88
2023-04-16T21:55:48.602Z,100148.13
2023-04-16T21:58:51.089Z,100150.38
2023-04-16T22:01:53.404Z,100153.81
2023-04-16T22:04:55.727Z,100145.03
2023-04-16T22:07:57.966Z,100140.03
2023-04-16T22:11:01.912Z,100147.91
2023-04-16T22:14:08.251Z,100148.47
2023-04-16T22:17:11.099Z,100146.22
2023-04-16T22:20:13.447Z,100144.00
2023-04-16T22:23:15.861Z,100142.72
2023-04-16T22:26:18.133Z,100134.25
2023-04-16T22:29:20.445Z,100134.91
2023-04-16T22:32:22.931Z,100141.09
2023-04-16T22:35:25.399Z,100133.16
2023-04-16T22:38:27.711Z,100132.31
2023-04-16T22:41:29.991Z,100130.69
2023-04-16T22:44:32.473Z,100124.16
2023-04-16T22:47:34.842Z,100124.44
2023-04-16T22:50:37.098Z,100128.22
2023-04-16T22:53:39.374Z,100126.06
2023-04-16T22:56:41.707Z,100119.44
2023-04-16T22:59:43.972Z,100118.91
2023-04-16T23:02:46.639Z,100113.09
2023-04-16T23:05:49.205Z,100118.66
2023-04-16T23:08:51.493Z,100115.28
2023-04-16T23:11:53.707Z,100111.63
2023-04-16T23:14:56.422Z,100106.56
2023-04-16T23:17:58.822Z,100100.97
2023-04-16T23:21:01.084Z,100103.16
2023-04-16T23:24:03.462Z,100099.34
2023-04-16T23:27:05.810Z,100096.47
2023-04-16T23:30:08.782Z,100093.81
2023-04-16T23:33:11.078Z,100091.84
2023-04-16T23:36:13.232Z,100094.25
2023-04-16T23:39:15.473Z,100087.72
2023-04-16T23:42:18.117Z,100086.16
2023-04-16T23:45:20.415Z,100074.88
2023-04-16T23:48:22.725Z,100080.88
2023-04-16T23:51:26.238Z,100082.63
2023-04-16T23:54:28.570Z,100075.50
2023-04-16T23:57:31.008Z,100076.03
